Time;durP1;ratioP1;P1;durP2;ratioP2;P2;SDS_P1;SDS_P2;PMS_P1;PMS_P2;Temp;Humidity;BMP_temperature;BMP_pressure;BME280_temperature;BME280_humidity;BME280_pressure;Samples;Min_cycle;Max_cycle;Signal;HPM_P1;HPM_P2
2023/06/30 00:00:11;;;;;;;1.00;0.88;;;22.50;58.40;;;;;;4938648;29;20070;-73
2023/06/30 00:02:41;;;;;;;1.98;1.00;;;22.50;58.40;;;;;;4938870;28;20039;-74
2023/06/30 00:05:08;;;;;;;1.33;0.98;;;22.40;58.40;;;;;;4938547;29;20039;-74
2023/06/30 00:07:33;;;;;;;1.88;1.00;;;22.40;58.40;;;;;;4955460;29;20039;-75
2023/06/30 00:09:59;;;;;;;1.45;1.15;;;22.40;58.40;;;;;;4938463;29;20042;-74
2023/06/30 00:12:25;;;;;;;1.20;1.10;;;22.40;58.40;;;;;;4954308;29;20448;-74
2023/06/30 00:14:51;;;;;;;1.30;0.90;;;22.40;58.50;;;;;;4955019;28;20035;-74
2023/06/30 00:17:16;;;;;;;2.97;1.10;;;22.30;58.40;;;;;;4955853;28;20082;-74
2023/06/30 00:19:42;;;;;;;1.20;1.10;;;22.30;58.50;;;;;;4955358;28;20433;-74
2023/06/30 00:22:08;;;;;;;1.08;1.00;;;22.30;58.50;;;;;;4954183;29;20483;-74
2023/06/30 00:24:34;;;;;;;1.45;1.02;;;22.30;58.50;;;;;;4953962;29;20035;-76
2023/06/30 00:27:00;;;;;;;1.67;1.10;;;22.30;58.50;;;;;;4955754;28;20062;-74
2023/06/30 00:29:26;;;;;;;1.75;1.23;;;22.30;58.50;;;;;;4954153;28;20428;-74
2023/06/30 00:31:52;;;;;;;2.25;1.10;;;22.20;58.40;;;;;;4955408;29;20122;-74
2023/06/30 00:34:18;;;;;;;1.38;1.08;;;22.20;58.50;;;;;;4954544;29;20368;-75
2023/06/30 00:36:45;;;;;;;2.95;1.17;;;22.20;58.50;;;;;;4954952;29;20090;-74
2023/06/30 00:39:12;;;;;;;2.58;1.10;;;22.20;58.50;;;;;;4954640;29;20051;-74
2023/06/30 00:41:38;;;;;;;2.30;1.00;;;22.10;58.50;;;;;;4953382;28;20039;-74
2023/06/30 00:44:04;;;;;;;2.08;1.10;;;22.10;58.50;;;;;;4955102;28;20364;-74
2023/06/30 00:46:29;;;;;;;1.95;1.10;;;22.10;58.50;;;;;;4957087;29;20031;-74
2023/06/30 00:48:56;;;;;;;2.05;1.20;;;22.10;58.60;;;;;;4958326;29;20046;-75
2023/06/30 00:51:22;;;;;;;2.63;1.38;;;22.00;58.50;;;;;;4959259;28;20113;-74
2023/06/30 00:53:47;;;;;;;1.52;1.15;;;22.00;58.50;;;;;;4942249;29;20039;-74
2023/06/30 00:56:13;;;;;;;1.52;1.00;;;22.00;58.50;;;;;;4941845;28;20035;-74
2023/06/30 00:58:39;;;;;;;1.48;1.20;;;22.00;58.50;;;;;;4942035;29;20074;-73
2023/06/30 01:01:33;;;;;;;2.53;1.33;;;21.90;58.50;;;;;;4942524;28;20043;-75
2023/06/30 01:04:30;;;;;;;2.40;1.20;;;21.90;58.60;;;;;;4951059;29;20156;-74
2023/06/30 01:07:19;;;;;;;2.67;0.93;;;21.90;58.50;;;;;;4958541;29;20031;-74
2023/06/30 01:09:54;;;;;;;1.60;1.15;;;21.80;58.60;;;;;;4941745;29;20027;-74
2023/06/30 01:12:20;;;;;;;1.63;1.20;;;21.80;58.60;;;;;;4958002;28;20037;-74
2023/06/30 01:14:48;;;;;;;1.30;1.13;;;21.80;58.50;;;;;;4957883;28;20023;-74
2023/06/30 01:17:17;;;;;;;1.90;1.17;;;21.80;58.60;;;;;;4942421;29;20404;-74
2023/06/30 01:19:47;;;;;;;1.20;1.10;;;21.80;58.60;;;;;;4957390;29;20502;-74
2023/06/30 01:22:39;;;;;;;1.05;0.95;;;21.70;58.60;;;;;;4958741;28;20043;-74
2023/06/30 01:25:09;;;;;;;3.08;1.20;;;21.70;58.70;;;;;;4958743;28;20054;-74
2023/06/30 01:27:36;;;;;;;1.67;1.05;;;21.70;58.60;;;;;;4959161;28;20034;-74
2023/06/30 01:30:06;;;;;;;1.45;1.10;;;21.70;58.60;;;;;;4957453;29;20119;-74
2023/06/30 01:32:32;;;;;;;2.63;1.20;;;21.60;58.70;;;;;;4941366;29;20027;-75
2023/06/30 01:34:58;;;;;;;2.10;1.08;;;21.60;58.70;;;;;;4957765;29;20552;-74
2023/06/30 01:37:24;;;;;;;2.40;1.27;;;21.50;58.60;;;;;;4958177;29;20024;-74
2023/06/30 01:39:50;;;;;;;2.83;1.20;;;21.50;58.60;;;;;;4956935;29;20066;-74
2023/06/30 01:42:17;;;;;;;1.75;1.20;;;21.50;58.70;;;;;;4957011;29;20035;-74
2023/06/30 01:44:44;;;;;;;3.85;1.40;;;21.50;58.80;;;;;;4957614;29;20071;-75
2023/06/30 01:47:10;;;;;;;1.30;1.17;;;21.40;58.70;;;;;;4956850;29;20062;-74
2023/06/30 01:49:37;;;;;;;1.58;1.10;;;21.40;58.70;;;;;;4957027;28;20031;-74
2023/06/30 01:52:03;;;;;;;3.20;1.58;;;21.40;58.70;;;;;;4957701;29;20392;-74
2023/06/30 01:54:28;;;;;;;1.98;1.20;;;21.40;58.70;;;;;;4956613;29;20027;-74
2023/06/30 01:56:54;;;;;;;3.05;1.50;;;21.30;58.70;;;;;;4940326;29;20042;-74
2023/06/30 01:59:20;;;;;;;1.80;1.30;;;21.30;58.70;;;;;;4956808;29;20061;-74
2023/06/30 02:01:46;;;;;;;1.45;1.23;;;21.30;58.80;;;;;;4958140;28;20039;-74
2023/06/30 02:04:13;;;;;;;2.13;1.30;;;21.20;58.70;;;;;;4941035;28;20031;-74
2023/06/30 02:06:38;;;;;;;1.45;1.10;;;21.20;58.70;;;;;;4956855;29;20046;-74
2023/06/30 02:09:04;;;;;;;2.47;1.42;;;21.20;58.80;;;;;;4941459;28;20038;-74
2023/06/30 02:11:30;;;;;;;1.73;1.17;;;21.20;58.80;;;;;;4956519;29;20067;-75
2023/06/30 02:13:56;;;;;;;2.42;1.40;;;21.20;58.80;;;;;;4940854;29;20125;-74
2023/06/30 02:16:21;;;;;;;1.92;1.30;;;21.10;58.80;;;;;;4956810;29;20042;-74
2023/06/30 02:18:47;;;;;;;2.78;1.55;;;21.10;58.90;;;;;;4956541;29;20042;-74
2023/06/30 02:21:13;;;;;;;2.42;1.27;;;21.10;58.90;;;;;;4956107;29;20512;-74
2023/06/30 02:23:39;;;;;;;2.63;1.40;;;21.00;58.90;;;;;;4956313;29;20042;-75
2023/06/30 02:26:05;;;;;;;3.03;1.30;;;21.00;58.90;;;;;;4956387;29;20167;-75
2023/06/30 02:28:31;;;;;;;1.45;1.13;;;21.00;59.00;;;;;;4956368;29;20457;-74
2023/06/30 02:30:56;;;;;;;2.22;1.73;;;20.90;59.00;;;;;;4940299;28;20436;-74
2023/06/30 02:33:23;;;;;;;1.83;1.13;;;20.90;59.00;;;;;;4957490;28;20380;-74
2023/06/30 02:35:50;;;;;;;1.92;1.17;;;20.90;59.00;;;;;;4957170;28;20377;-74
2023/06/30 02:38:16;;;;;;;3.33;1.48;;;20.90;59.00;;;;;;4940604;28;20032;-75
2023/06/30 02:40:42;;;;;;;2.92;1.27;;;20.80;59.00;;;;;;4940063;28;20138;-76
2023/06/30 02:43:08;;;;;;;2.58;1.35;;;20.80;59.00;;;;;;4940671;29;20039;-74
2023/06/30 02:45:34;;;;;;;2.30;1.42;;;20.80;59.00;;;;;;4939983;29;20094;-74
2023/06/30 02:48:00;;;;;;;1.98;1.38;;;20.70;59.00;;;;;;4939941;29;20468;-74
2023/06/30 02:50:30;;;;;;;1.75;1.30;;;20.70;59.70;;;;;;4940256;29;20031;-74
2023/06/30 02:53:00;;;;;;;2.25;1.30;;;20.70;59.10;;;;;;4956227;29;20039;-74
2023/06/30 02:55:26;;;;;;;2.20;1.25;;;20.70;59.10;;;;;;4955814;29;20039;-74
2023/06/30 02:57:53;;;;;;;1.48;1.38;;;20.60;59.10;;;;;;4956025;28;20457;-75
2023/06/30 03:00:20;;;;;;;3.47;1.40;;;20.60;59.10;;;;;;4955919;29;20036;-74
2023/06/30 03:02:45;;;;;;;1.77;1.20;;;20.60;59.10;;;;;;4955599;28;20082;-74
2023/06/30 03:05:13;;;;;;;2.55;1.55;;;20.50;59.10;;;;;;4955825;29;20046;-75
2023/06/30 03:07:39;;;;;;;3.22;1.40;;;20.50;59.10;;;;;;4939113;29;20521;-74
2023/06/30 03:10:06;;;;;;;1.85;1.20;;;20.50;59.20;;;;;;4955758;29;20038;-74
2023/06/30 03:12:31;;;;;;;3.28;1.45;;;20.50;59.20;;;;;;4939549;28;20492;-73
2023/06/30 03:14:57;;;;;;;2.00;1.27;;;20.50;59.20;;;;;;4939817;28;20059;-74
2023/06/30 03:17:23;;;;;;;1.52;1.15;;;20.40;59.20;;;;;;4956638;28;20495;-74
2023/06/30 03:19:49;;;;;;;1.98;1.23;;;20.40;59.20;;;;;;4957144;28;20027;-74
2023/06/30 03:22:14;;;;;;;1.55;1.25;;;20.40;59.30;;;;;;4940052;29;20039;-74
2023/06/30 03:24:41;;;;;;;1.63;1.15;;;20.40;59.20;;;;;;4939154;29;20035;-74
2023/06/30 03:27:06;;;;;;;1.35;1.25;;;20.30;59.20;;;;;;4954841;29;20118;-74
2023/06/30 03:29:32;;;;;;;3.42;1.70;;;20.30;59.20;;;;;;4939267;28;20035;-74
2023/06/30 03:31:58;;;;;;;2.05;1.42;;;20.20;59.20;;;;;;4939209;28;20547;-76
2023/06/30 03:34:25;;;;;;;2.00;1.35;;;20.20;59.20;;;;;;4939515;29;20062;-74
2023/06/30 03:36:51;;;;;;;2.03;1.10;;;20.20;59.20;;;;;;4939155;29;20031;-74
2023/06/30 03:39:17;;;;;;;2.17;1.30;;;20.20;59.30;;;;;;4939024;29;20149;-74
2023/06/30 03:41:43;;;;;;;1.95;1.20;;;20.10;59.20;;;;;;4955144;29;20138;-74
2023/06/30 03:44:11;;;;;;;2.05;1.30;;;20.10;59.30;;;;;;4954587;28;20040;-74
2023/06/30 03:46:37;;;;;;;1.58;1.30;;;20.10;59.30;;;;;;4955119;28;20082;-74
2023/06/30 03:49:03;;;;;;;1.90;1.38;;;20.10;59.30;;;;;;4938828;29;20061;-74
2023/06/30 03:51:29;;;;;;;1.48;1.08;;;20.00;59.30;;;;;;4938971;29;20035;-74
2023/06/30 03:53:55;;;;;;;1.80;1.30;;;20.00;59.30;;;;;;4939531;29;20062;-75
2023/06/30 03:56:21;;;;;;;1.00;0.90;;;20.00;59.30;;;;;;4938544;28;20510;-74
2023/06/30 03:58:47;;;;;;;2.72;1.40;;;19.90;59.40;;;;;;4938562;28;20031;-74
2023/06/30 04:01:12;;;;;;;2.47;1.38;;;19.90;59.40;;;;;;4939455;29;20035;-74
2023/06/30 04:03:38;;;;;;;1.23;1.08;;;19.90;59.40;;;;;;4955641;28;20059;-73
2023/06/30 04:06:04;;;;;;;2.20;1.30;;;19.80;59.40;;;;;;4956627;28;20090;-75
2023/06/30 04:08:30;;;;;;;1.52;1.10;;;19.80;59.40;;;;;;4938659;29;20042;-74
2023/06/30 04:10:55;;;;;;;1.33;1.00;;;19.80;59.40;;;;;;4938493;28;20038;-74
2023/06/30 04:13:21;;;;;;;1.30;1.20;;;19.80;59.40;;;;;;4938586;29;20031;-74
2023/06/30 04:15:47;;;;;;;2.03;1.20;;;19.70;59.40;;;;;;4922899;29;20027;-74
2023/06/30 04:18:13;;;;;;;1.33;1.20;;;19.70;59.40;;;;;;4954163;29;20031;-74
2023/06/30 04:20:38;;;;;;;1.85;1.23;;;19.70;59.40;;;;;;4938572;29;20384;-74
2023/06/30 04:23:04;;;;;;;2.13;1.20;;;19.70;59.50;;;;;;4955079;29;20090;-74
2023/06/30 04:25:30;;;;;;;1.52;1.02;;;19.70;59.50;;;;;;4954213;29;20091;-73
2023/06/30 04:27:56;;;;;;;1.50;1.30;;;19.70;59.50;;;;;;4955557;28;20107;-73
2023/06/30 04:30:21;;;;;;;1.65;1.20;;;19.60;59.50;;;;;;4938523;29;20377;-73
2023/06/30 04:32:47;;;;;;;1.60;1.10;;;19.60;59.50;;;;;;4955247;28;20063;-75
2023/06/30 04:35:14;;;;;;;1.70;1.25;;;19.60;59.50;;;;;;4954410;29;20217;-74
2023/06/30 04:37:40;;;;;;;2.28;1.30;;;19.60;59.60;;;;;;4954498;29;20038;-73
2023/06/30 04:40:08;;;;;;;2.08;1.50;;;19.50;59.50;;;;;;4954017;29;20048;-74
2023/06/30 04:42:34;;;;;;;1.52;1.20;;;19.50;59.60;;;;;;4955062;28;20063;-74
2023/06/30 04:45:00;;;;;;;1.83;1.15;;;19.50;59.60;;;;;;4954103;29;20046;-74
2023/06/30 04:47:27;;;;;;;1.27;1.10;;;19.50;59.60;;;;;;4938879;28;20031;-74
2023/06/30 04:49:53;;;;;;;3.45;1.23;;;19.50;59.70;;;;;;4938116;29;20118;-73
2023/06/30 04:52:19;;;;;;;1.80;1.10;;;19.40;59.60;;;;;;4955325;28;20042;-74
2023/06/30 04:54:45;;;;;;;2.35;1.20;;;19.40;59.70;;;;;;4938237;29;20035;-74
2023/06/30 04:57:11;;;;;;;1.60;1.23;;;19.40;59.70;;;;;;4938858;29;20118;-74
2023/06/30 04:59:37;;;;;;;2.03;1.30;;;19.40;59.80;;;;;;4953866;28;20349;-74
2023/06/30 05:02:03;;;;;;;2.08;1.30;;;19.40;59.80;;;;;;4953446;29;20122;-73
2023/06/30 05:04:29;;;;;;;2.30;1.30;;;19.40;59.80;;;;;;4954931;28;20039;-74
2023/06/30 05:06:55;;;;;;;2.17;1.27;;;19.40;59.80;;;;;;4938236;29;20039;-76
2023/06/30 05:09:22;;;;;;;2.20;1.13;;;19.30;59.80;;;;;;4953598;29;20440;-73
2023/06/30 05:11:48;;;;;;;2.25;1.30;;;19.30;59.80;;;;;;4953982;29;20027;-73
2023/06/30 05:14:14;;;;;;;1.65;1.15;;;19.30;59.90;;;;;;4954849;28;20138;-73
2023/06/30 05:16:39;;;;;;;1.90;1.30;;;19.30;59.80;;;;;;4937753;28;20086;-73
2023/06/30 05:19:05;;;;;;;1.58;1.15;;;19.30;59.80;;;;;;4953789;29;20043;-73
2023/06/30 05:21:31;;;;;;;2.03;1.15;;;19.30;59.90;;;;;;4953406;29;20031;-73
2023/06/30 05:23:57;;;;;;;1.20;1.10;;;19.30;60.50;;;;;;4954761;28;20062;-75
2023/06/30 05:26:22;;;;;;;2.33;1.20;;;19.30;59.90;;;;;;4954998;28;20032;-74
2023/06/30 05:28:48;;;;;;;2.15;1.30;;;19.30;59.90;;;;;;4953999;29;20035;-74
2023/06/30 05:31:14;;;;;;;1.88;1.10;;;19.20;59.80;;;;;;4954220;28;20041;-73
2023/06/30 05:33:40;;;;;;;2.08;1.23;;;19.20;59.90;;;;;;4958729;29;20070;-73
2023/06/30 05:36:05;;;;;;;1.45;1.20;;;19.30;60.00;;;;;;4940792;29;20047;-74
2023/06/30 05:38:31;;;;;;;1.30;1.13;;;19.30;60.00;;;;;;4957155;29;20039;-73
2023/06/30 05:40:58;;;;;;;1.40;1.08;;;19.20;59.90;;;;;;4940592;29;20074;-73
2023/06/30 05:43:25;;;;;;;0.93;0.93;;;19.20;60.00;;;;;;4957107;28;20046;-75
2023/06/30 05:45:50;;;;;;;1.27;1.05;;;19.20;60.00;;;;;;4958451;28;20505;-73
2023/06/30 05:48:16;;;;;;;2.05;1.10;;;19.20;60.00;;;;;;4957862;28;20167;-73
2023/06/30 05:50:42;;;;;;;2.30;1.33;;;19.20;60.00;;;;;;4941137;29;20031;-77
2023/06/30 05:53:08;;;;;;;1.90;1.10;;;19.20;60.00;;;;;;4957920;28;20480;-74
2023/06/30 05:55:34;;;;;;;1.65;1.08;;;19.20;60.00;;;;;;4956926;29;20027;-73
2023/06/30 05:58:00;;;;;;;1.45;1.00;;;19.20;60.00;;;;;;4957042;28;20038;-76
2023/06/30 06:00:27;;;;;;;1.08;0.95;;;19.20;60.00;;;;;;4940634;28;20035;-74
2023/06/30 06:02:53;;;;;;;1.40;1.13;;;19.20;60.00;;;;;;4956781;29;20090;-73
2023/06/30 06:05:19;;;;;;;1.88;1.15;;;19.20;60.00;;;;;;4956528;29;20042;-73
2023/06/30 06:07:45;;;;;;;2.05;1.23;;;19.20;60.00;;;;;;4957710;28;20369;-73
2023/06/30 06:10:10;;;;;;;2.03;1.27;;;19.20;60.00;;;;;;4957609;28;20031;-73
2023/06/30 06:12:39;;;;;;;1.15;1.05;;;19.20;60.10;;;;;;4941408;29;20046;-73
2023/06/30 06:15:06;;;;;;;1.88;0.98;;;19.20;60.10;;;;;;4940907;29;20385;-74
2023/06/30 06:17:32;;;;;;;1.50;1.15;;;19.20;60.10;;;;;;4941160;29;20038;-73
2023/06/30 06:19:58;;;;;;;1.50;1.05;;;19.30;60.10;;;;;;4956501;29;20031;-73
2023/06/30 06:22:24;;;;;;;2.20;1.10;;;19.20;60.00;;;;;;4956644;29;20050;-74
2023/06/30 06:24:49;;;;;;;1.58;1.15;;;19.20;60.10;;;;;;4941360;29;20043;-73
2023/06/30 06:27:15;;;;;;;2.28;1.10;;;19.20;60.00;;;;;;4957095;29;20024;-74
2023/06/30 06:29:41;;;;;;;4.53;1.45;;;19.20;60.00;;;;;;4956460;29;20119;-74
2023/06/30 06:32:07;;;;;;;2.20;1.35;;;19.30;60.10;;;;;;4941170;28;20353;-75
2023/06/30 06:34:33;;;;;;;1.50;1.02;;;19.30;60.10;;;;;;4940388;29;20128;-75
2023/06/30 06:37:00;;;;;;;1.30;0.90;;;19.30;60.10;;;;;;4941152;29;20441;-73
2023/06/30 06:39:26;;;;;;;1.33;1.13;;;19.30;60.10;;;;;;4939841;28;20052;-75
2023/06/30 06:41:52;;;;;;;2.13;1.08;;;19.30;60.10;;;;;;4957023;28;20036;-74
2023/06/30 06:44:17;;;;;;;2.67;1.20;;;19.30;60.10;;;;;;4940038;29;20043;-74
2023/06/30 06:46:43;;;;;;;2.63;1.38;;;19.30;60.10;;;;;;4956597;29;20050;-74
2023/06/30 06:49:09;;;;;;;2.42;1.20;;;19.30;60.10;;;;;;4940082;28;20039;-74
2023/06/30 06:51:35;;;;;;;1.73;1.17;;;19.30;60.10;;;;;;4957081;28;20035;-74
2023/06/30 06:54:01;;;;;;;1.95;1.10;;;19.30;60.10;;;;;;4939976;29;20373;-75
2023/06/30 06:56:27;;;;;;;1.30;1.17;;;19.30;60.10;;;;;;4955732;28;20031;-75
2023/06/30 06:58:52;;;;;;;1.73;1.10;;;19.30;60.10;;;;;;4939834;28;20483;-75
2023/06/30 07:01:18;;;;;;;1.67;1.10;;;19.40;60.10;;;;;;4956422;28;20036;-75
2023/06/30 07:03:44;;;;;;;2.10;1.08;;;19.40;60.10;;;;;;4939903;29;20472;-75
2023/06/30 07:06:10;;;;;;;1.92;1.10;;;19.40;60.10;;;;;;4955924;29;20113;-76
2023/06/30 07:08:36;;;;;;;1.50;1.40;;;19.40;60.10;;;;;;4955462;28;20027;-75
2023/06/30 07:11:03;;;;;;;1.73;1.15;;;19.40;60.10;;;;;;4955567;28;20082;-75
2023/06/30 07:13:29;;;;;;;1.67;1.27;;;19.40;60.10;;;;;;4955477;28;20031;-74
2023/06/30 07:15:56;;;;;;;1.17;1.00;;;19.40;60.10;;;;;;4956510;28;20027;-74
2023/06/30 07:18:21;;;;;;;2.85;1.15;;;19.50;60.10;;;;;;4955341;28;20412;-75
2023/06/30 07:20:48;;;;;;;1.17;1.00;;;19.50;60.00;;;;;;4955728;29;20085;-74
2023/06/30 07:23:14;;;;;;;2.25;1.17;;;19.50;60.00;;;;;;4955100;29;20082;-75
2023/06/30 07:25:40;;;;;;;1.83;1.10;;;19.50;60.00;;;;;;4939686;29;20039;-76
2023/06/30 07:28:06;;;;;;;2.45;1.48;;;19.50;59.90;;;;;;4955244;29;20484;-75
2023/06/30 07:30:32;;;;;;;1.45;1.17;;;19.60;59.90;;;;;;4956247;28;20042;-74
2023/06/30 07:32:58;;;;;;;1.50;1.25;;;19.60;59.80;;;;;;4939869;29;20039;-73
2023/06/30 07:35:24;;;;;;;1.92;1.00;;;19.70;59.80;;;;;;4954484;29;20492;-74
2023/06/30 07:37:50;;;;;;;1.27;1.00;;;19.70;59.70;;;;;;4955828;29;20058;-74
2023/06/30 07:40:17;;;;;;;1.58;1.10;;;19.80;59.60;;;;;;4955422;29;20058;-74
2023/06/30 07:42:43;;;;;;;1.23;1.05;;;19.80;59.60;;;;;;4955912;28;20031;-73
2023/06/30 07:45:14;;;;;;;1.90;1.08;;;19.80;59.50;;;;;;4954676;29;20476;-74
2023/06/30 07:47:40;;;;;;;1.27;0.95;;;19.90;59.40;;;;;;4955833;28;20472;-73
2023/06/30 07:50:10;;;;;;;1.30;1.02;;;20.00;59.30;;;;;;4954980;29;20043;-74
2023/06/30 07:52:56;;;;;;;2.08;1.23;;;20.00;59.30;;;;;;4956199;28;20027;-74
2023/06/30 07:55:22;;;;;;;1.02;0.80;;;20.10;59.20;;;;;;4953866;28;20472;-75
2023/06/30 07:57:49;;;;;;;1.92;1.10;;;20.10;59.00;;;;;;4956019;28;20114;-74
2023/06/30 08:00:15;;;;;;;1.55;1.08;;;20.20;59.00;;;;;;4938717;28;20039;-74
2023/06/30 08:02:42;;;;;;;2.25;1.00;;;20.30;58.90;;;;;;4938661;29;20062;-75
2023/06/30 08:05:09;;;;;;;0.88;0.80;;;20.30;58.80;;;;;;4938430;29;20031;-76
2023/06/30 08:07:34;;;;;;;1.38;0.95;;;20.40;58.70;;;;;;4954373;29;20031;-75
2023/06/30 08:10:00;;;;;;;0.80;0.80;;;20.50;58.70;;;;;;4954403;29;20408;-77
2023/06/30 08:12:26;;;;;;;1.13;0.93;;;20.60;58.60;;;;;;4938207;29;20039;-77
2023/06/30 08:14:52;;;;;;;0.93;0.82;;;20.70;58.50;;;;;;4954569;29;20035;-76
2023/06/30 08:17:18;;;;;;;1.60;1.02;;;20.70;58.40;;;;;;4956067;28;20118;-77
2023/06/30 08:19:44;;;;;;;0.93;0.80;;;20.80;58.30;;;;;;4956018;28;20093;-76
2023/06/30 08:22:13;;;;;;;1.20;1.00;;;20.90;58.30;;;;;;4954188;29;20031;-76
2023/06/30 08:24:40;;;;;;;1.70;1.05;;;20.90;58.10;;;;;;4938334;28;20086;-76
2023/06/30 08:27:06;;;;;;;2.70;1.02;;;21.00;58.10;;;;;;4955777;28;20047;-77
2023/06/30 08:29:32;;;;;;;0.82;0.80;;;21.10;58.00;;;;;;4938264;29;20035;-75
2023/06/30 08:31:57;;;;;;;0.80;0.80;;;21.20;57.90;;;;;;4955715;29;20478;-74
2023/06/30 08:34:25;;;;;;;1.50;0.90;;;21.30;57.80;;;;;;4956280;28;20062;-76
2023/06/30 08:36:55;;;;;;;1.02;0.82;;;21.30;57.70;;;;;;4938760;29;20058;-75
2023/06/30 08:39:26;;;;;;;1.48;1.05;;;21.40;57.70;;;;;;4937903;29;20027;-75
2023/06/30 08:41:55;;;;;;;1.85;1.05;;;21.50;57.60;;;;;;4938094;29;20031;-74
2023/06/30 08:44:25;;;;;;;1.05;0.70;;;21.50;57.50;;;;;;4955479;28;20034;-75
2023/06/30 08:46:56;;;;;;;1.15;0.90;;;21.60;57.40;;;;;;4953971;29;20038;-74
2023/06/30 08:49:23;;;;;;;1.00;0.90;;;21.70;57.40;;;;;;4954843;29;20039;-74
2023/06/30 08:51:58;;;;;;;0.93;0.77;;;21.80;57.30;;;;;;4954881;28;20040;-74
2023/06/30 08:54:24;;;;;;;0.93;0.80;;;21.90;57.30;;;;;;4953789;29;20047;-74
2023/06/30 08:56:50;;;;;;;0.90;0.80;;;22.00;57.20;;;;;;4955047;28;20024;-74
2023/06/30 08:59:16;;;;;;;0.70;0.70;;;22.10;57.10;;;;;;4954124;29;20035;-74
2023/06/30 09:01:44;;;;;;;1.52;1.10;;;22.10;57.00;;;;;;4954178;28;20528;-74
2023/06/30 09:04:11;;;;;;;1.00;0.90;;;22.20;57.60;;;;;;4954704;28;20035;-74
2023/06/30 09:06:42;;;;;;;1.33;0.90;;;22.30;57.00;;;;;;4939681;29;20035;-74
2023/06/30 09:09:13;;;;;;;1.00;0.95;;;22.40;56.90;;;;;;4959407;28;20114;-74
2023/06/30 09:11:39;;;;;;;1.00;0.88;;;22.50;56.90;;;;;;4957982;29;20086;-74
2023/06/30 09:14:07;;;;;;;0.90;0.90;;;22.60;56.80;;;;;;4941878;29;20464;-74
2023/06/30 09:16:33;;;;;;;1.38;0.80;;;22.60;56.70;;;;;;4959126;28;20118;-76
2023/06/30 09:19:00;;;;;;;0.98;0.82;;;22.70;56.70;;;;;;4958206;29;20035;-75
2023/06/30 09:21:25;;;;;;;1.48;1.05;;;22.80;56.70;;;;;;4959516;28;20027;-74
2023/06/30 09:23:51;;;;;;;1.23;0.90;;;22.90;56.70;;;;;;4941485;28;20051;-74
2023/06/30 09:26:17;;;;;;;1.17;1.05;;;23.00;56.60;;;;;;4941590;29;20580;-75
2023/06/30 09:28:44;;;;;;;1.05;0.98;;;23.00;56.50;;;;;;4941445;29;20537;-74
2023/06/30 09:31:10;;;;;;;0.90;0.88;;;23.10;56.40;;;;;;4957713;29;20031;-75
2023/06/30 09:33:36;;;;;;;0.85;0.85;;;23.20;56.40;;;;;;4958303;28;20118;-74
2023/06/30 09:36:06;;;;;;;1.45;0.80;;;23.30;56.40;;;;;;4957362;28;20053;-75
2023/06/30 09:38:34;;;;;;;1.40;0.90;;;23.30;56.30;;;;;;4942054;28;20162;-74
2023/06/30 09:41:04;;;;;;;0.80;0.70;;;23.50;56.30;;;;;;4956817;29;20069;-75
2023/06/30 09:43:32;;;;;;;1.13;1.00;;;23.60;56.30;;;;;;4942111;28;20047;-75
2023/06/30 09:46:00;;;;;;;1.00;0.75;;;23.60;56.10;;;;;;4942068;29;20032;-75
2023/06/30 09:48:36;;;;;;;1.23;0.90;;;23.70;56.00;;;;;;4956770;29;20428;-75
2023/06/30 09:51:02;;;;;;;0.90;0.90;;;23.80;56.00;;;;;;4956792;29;20027;-76
2023/06/30 09:53:38;;;;;;;1.00;0.70;;;23.90;55.90;;;;;;4958769;28;20038;-75
2023/06/30 09:56:04;;;;;;;1.00;0.85;;;23.90;55.90;;;;;;4958765;28;20047;-74
2023/06/30 09:58:30;;;;;;;0.68;0.68;;;24.00;55.70;;;;;;4940851;29;20042;-76
2023/06/30 10:00:57;;;;;;;1.48;0.85;;;24.00;55.60;;;;;;4957814;28;20054;-74
2023/06/30 10:03:23;;;;;;;1.05;0.80;;;24.10;55.60;;;;;;4957703;29;20028;-75
2023/06/30 10:05:49;;;;;;;1.25;0.85;;;24.20;55.60;;;;;;4957786;28;20488;-75
2023/06/30 10:08:15;;;;;;;0.73;0.73;;;24.20;55.60;;;;;;4956962;29;20065;-74
2023/06/30 10:10:42;;;;;;;0.80;0.80;;;24.30;55.50;;;;;;4957872;28;20544;-74
2023/06/30 10:13:10;;;;;;;1.05;0.75;;;24.30;55.60;;;;;;4957684;28;20043;-75
2023/06/30 10:15:36;;;;;;;1.00;0.90;;;24.40;55.50;;;;;;4956410;29;20020;-74
2023/06/30 10:18:03;;;;;;;1.17;0.80;;;24.40;55.50;;;;;;4958289;28;20380;-75
2023/06/30 10:20:29;;;;;;;0.85;0.80;;;24.40;55.50;;;;;;4956396;29;20098;-74
2023/06/30 10:22:56;;;;;;;1.30;0.90;;;24.50;55.50;;;;;;4941202;29;20373;-75
2023/06/30 10:25:25;;;;;;;0.77;0.77;;;24.60;55.50;;;;;;4957836;28;20039;-75
2023/06/30 10:27:51;;;;;;;1.02;0.90;;;24.60;55.40;;;;;;4957178;29;20050;-75
2023/06/30 10:30:17;;;;;;;1.52;0.90;;;24.60;55.40;;;;;;4940389;29;20483;-76
2023/06/30 10:32:43;;;;;;;0.85;0.77;;;24.60;55.30;;;;;;4956404;29;20130;-76
2023/06/30 10:35:13;;;;;;;1.35;0.82;;;24.70;55.30;;;;;;4940545;28;20071;-76
2023/06/30 10:37:39;;;;;;;1.23;0.95;;;24.70;55.30;;;;;;4957125;28;20054;-74
2023/06/30 10:40:22;;;;;;;0.80;0.80;;;24.80;55.30;;;;;;4957729;28;20075;-75
2023/06/30 10:42:52;;;;;;;1.20;0.70;;;24.80;55.30;;;;;;4957353;28;20149;-75
2023/06/30 10:45:20;;;;;;;1.67;1.00;;;24.90;55.20;;;;;;4956492;29;20494;-75
2023/06/30 10:47:50;;;;;;;1.17;0.88;;;24.90;55.10;;;;;;4940976;29;20039;-76
2023/06/30 10:50:16;;;;;;;2.63;0.90;;;25.00;55.10;;;;;;4955760;29;20484;-74
2023/06/30 10:52:53;;;;;;;1.52;0.90;;;25.00;55.00;;;;;;4957550;28;20117;-74
2023/06/30 10:55:21;;;;;;;1.02;0.80;;;25.00;54.90;;;;;;4957863;28;20035;-74
2023/06/30 10:57:51;;;;;;;1.67;1.10;;;25.10;54.80;;;;;;4956414;28;20038;-74
2023/06/30 11:00:18;;;;;;;1.17;0.93;;;25.10;54.80;;;;;;4956192;29;20032;-74
2023/06/30 11:02:48;;;;;;;1.48;1.10;;;25.10;54.70;;;;;;4957549;28;20039;-75
2023/06/30 11:05:31;;;;;;;1.65;1.10;;;25.10;54.70;;;;;;4956515;29;20097;-75
2023/06/30 11:08:09;;;;;;;0.73;0.73;;;25.20;54.70;;;;;;4955968;28;20038;-75
2023/06/30 11:10:37;;;;;;;2.03;1.10;;;25.20;54.60;;;;;;4956032;29;20034;-74
2023/06/30 11:13:05;;;;;;;1.05;0.95;;;25.20;54.60;;;;;;4939594;29;20050;-74
2023/06/30 11:15:41;;;;;;;0.82;0.82;;;25.30;54.60;;;;;;4955307;29;20034;-74
2023/06/30 11:18:10;;;;;;;0.80;0.75;;;25.30;54.60;;;;;;4957165;29;20034;-74
2023/06/30 11:20:36;;;;;;;0.75;0.73;;;25.30;54.60;;;;;;4956359;28;20035;-74
2023/06/30 11:23:15;;;;;;;0.93;0.90;;;25.30;54.70;;;;;;4956638;28;20074;-75
2023/06/30 11:25:41;;;;;;;0.80;0.80;;;25.40;54.80;;;;;;4956677;28;20483;-74
2023/06/30 11:28:08;;;;;;;1.42;1.00;;;25.40;54.70;;;;;;4954920;28;20024;-74
2023/06/30 11:30:41;;;;;;;0.80;0.80;;;25.40;54.70;;;;;;4938464;29;20043;-74
2023/06/30 11:33:07;;;;;;;1.00;0.90;;;25.40;54.70;;;;;;4955519;29;20042;-74
2023/06/30 11:35:35;;;;;;;1.42;1.00;;;25.50;54.70;;;;;;4939197;29;20330;-75
2023/06/30 11:38:01;;;;;;;1.00;0.98;;;25.50;54.80;;;;;;4956073;29;20066;-75
2023/06/30 11:40:27;;;;;;;0.73;0.73;;;25.50;54.80;;;;;;4956309;28;20047;-75
2023/06/30 11:42:53;;;;;;;1.20;0.93;;;25.60;54.80;;;;;;4939300;29;20035;-74
2023/06/30 11:45:20;;;;;;;1.27;0.88;;;25.60;54.90;;;;;;4955601;29;20070;-75
2023/06/30 11:47:51;;;;;;;1.02;0.80;;;25.60;54.90;;;;;;4956378;28;20109;-74
2023/06/30 11:50:18;;;;;;;1.10;1.00;;;25.60;54.90;;;;;;4939109;29;20058;-74
2023/06/30 11:52:45;;;;;;;1.75;0.93;;;25.70;55.00;;;;;;4954816;29;20138;-74
2023/06/30 11:55:12;;;;;;;2.38;1.20;;;25.70;54.90;;;;;;4954900;29;20042;-74
2023/06/30 11:57:39;;;;;;;1.73;1.10;;;25.70;54.80;;;;;;4956533;28;20019;-74
2023/06/30 12:00:13;;;;;;;1.52;0.95;;;25.70;54.80;;;;;;4938744;29;20122;-74
2023/06/30 12:02:56;;;;;;;1.63;1.00;;;25.80;54.90;;;;;;4955965;29;20043;-75
2023/06/30 12:05:23;;;;;;;1.75;1.00;;;25.80;54.90;;;;;;4954423;29;20488;-75
2023/06/30 12:07:50;;;;;;;1.80;0.90;;;25.80;54.90;;;;;;4955320;28;20059;-74
2023/06/30 12:10:17;;;;;;;1.30;1.15;;;25.90;54.90;;;;;;4954503;29;20039;-75
2023/06/30 12:12:43;;;;;;;1.83;1.00;;;25.90;54.90;;;;;;4938804;29;20085;-74
2023/06/30 12:15:11;;;;;;;1.25;1.00;;;25.90;54.80;;;;;;4955698;28;20042;-74
2023/06/30 12:17:39;;;;;;;1.75;1.00;;;25.90;54.90;;;;;;4955906;29;20031;-76
2023/06/30 12:20:07;;;;;;;1.95;1.20;;;26.00;54.90;;;;;;4938736;29;20354;-74
2023/06/30 12:22:41;;;;;;;1.90;1.10;;;26.00;54.90;;;;;;4955037;29;20146;-74
2023/06/30 12:25:08;;;;;;;1.17;0.85;;;26.00;54.80;;;;;;4956496;28;20045;-75
2023/06/30 12:27:35;;;;;;;1.20;1.10;;;26.00;54.80;;;;;;4955297;28;20031;-74
2023/06/30 12:30:01;;;;;;;1.00;1.00;;;26.00;54.80;;;;;;4955273;28;20031;-74
2023/06/30 12:32:28;;;;;;;1.27;1.05;;;26.10;54.80;;;;;;4955199;28;20491;-74
2023/06/30 12:34:59;;;;;;;1.65;0.80;;;26.10;54.90;;;;;;4955526;28;20031;-74
2023/06/30 12:37:29;;;;;;;1.17;0.95;;;26.10;54.80;;;;;;4955247;28;20542;-74
2023/06/30 12:39:58;;;;;;;0.80;0.80;;;26.10;54.80;;;;;;4954521;29;20055;-74
2023/06/30 12:42:28;;;;;;;1.25;1.15;;;26.10;54.70;;;;;;4955482;28;20043;-74
2023/06/30 12:44:54;;;;;;;1.27;1.10;;;26.10;54.70;;;;;;4953949;29;20046;-74
2023/06/30 12:47:20;;;;;;;0.80;0.80;;;26.10;54.70;;;;;;4955403;28;20472;-74